createdAt,value
2018-03-19T00:01:37.504Z,-1.40
2018-03-19T00:04:05.093Z,-1.40
2018-03-19T00:06:32.713Z,-1.40
2018-03-19T00:09:00.320Z,-1.40
2018-03-19T00:11:28.103Z,-1.40
2018-03-19T00:13:55.705Z,-1.40
2018-03-19T00:16:23.320Z,-1.50
2018-03-19T00:18:50.908Z,-1.50
2018-03-19T00:21:18.744Z,-1.50
2018-03-19T00:23:46.333Z,-1.40
2018-03-19T00:26:13.983Z,-1.50
2018-03-19T00:28:41.581Z,-1.50
2018-03-19T00:31:09.199Z,-1.50
2018-03-19T00:33:36.827Z,-1.50
2018-03-19T00:36:04.450Z,-1.50
2018-03-19T00:38:32.520Z,-1.50
2018-03-19T00:41:00.504Z,-1.50
2018-03-19T00:43:28.131Z,-1.50
2018-03-19T00:45:55.773Z,-1.50
2018-03-19T00:48:23.379Z,-1.50
2018-03-19T00:50:52.002Z,-1.50
2018-03-19T00:53:19.615Z,-1.50
2018-03-19T00:55:47.221Z,-1.50
2018-03-19T00:58:14.826Z,-1.50
2018-03-19T01:00:42.457Z,-1.50
2018-03-19T01:03:10.176Z,-1.60
2018-03-19T01:05:37.824Z,-1.60
2018-03-19T01:08:05.440Z,-1.60
2018-03-19T01:10:33.064Z,-1.60
2018-03-19T01:13:00.704Z,-1.60
2018-03-19T01:15:28.337Z,-1.60
2018-03-19T01:17:55.935Z,-1.60
2018-03-19T01:20:23.538Z,-1.50
2018-03-19T01:22:51.164Z,-1.50
2018-03-19T01:25:18.821Z,-1.50
2018-03-19T01:27:46.803Z,-1.50
2018-03-19T01:30:14.400Z,-1.60
2018-03-19T01:32:42.026Z,-1.60
2018-03-19T01:35:09.624Z,-1.60
2018-03-19T01:37:37.284Z,-1.60
2018-03-19T01:40:05.267Z,-1.60
2018-03-19T01:42:32.852Z,-1.60
2018-03-19T01:45:00.445Z,-1.60
2018-03-19T01:47:28.027Z,-1.60
2018-03-19T01:49:55.671Z,-1.60
2018-03-19T01:52:35.121Z,-1.60
2018-03-19T01:55:02.736Z,-1.60
2018-03-19T01:57:30.336Z,-1.60
2018-03-19T01:59:57.963Z,-1.60
2018-03-19T02:02:25.567Z,-1.60
2018-03-19T02:04:53.236Z,-1.60
2018-03-19T02:07:20.832Z,-1.50
2018-03-19T02:09:48.492Z,-1.50
2018-03-19T02:12:16.099Z,-1.60
2018-03-19T02:14:44.152Z,-1.60
2018-03-19T02:17:11.775Z,-1.60
2018-03-19T02:19:39.386Z,-1.60
2018-03-19T02:22:06.977Z,-1.60
2018-03-19T02:24:34.580Z,-1.60
2018-03-19T02:27:02.402Z,-1.60
2018-03-19T02:29:30.019Z,-1.70
2018-03-19T02:31:57.890Z,-1.70
2018-03-19T02:34:25.542Z,-1.60
2018-03-19T02:36:53.275Z,-1.70
2018-03-19T02:39:20.905Z,-1.70
2018-03-19T02:41:48.495Z,-1.70
2018-03-19T02:44:16.155Z,-1.70
2018-03-19T02:46:43.730Z,-1.70
2018-03-19T02:49:11.364Z,-1.70
2018-03-19T02:51:38.931Z,-1.70
2018-03-19T02:54:06.563Z,-1.70
2018-03-19T02:56:34.164Z,-1.70
2018-03-19T02:59:01.767Z,-1.70
2018-03-19T03:01:29.408Z,-1.70
2018-03-19T03:03:57.035Z,-1.70
2018-03-19T03:06:24.640Z,-1.70
2018-03-19T03:08:52.258Z,-1.60
2018-03-19T03:11:31.597Z,-1.70
2018-03-19T03:13:59.171Z,-1.70
2018-03-19T03:16:27.131Z,-1.70
2018-03-19T03:18:55.071Z,-1.70
2018-03-19T03:21:22.675Z,-1.70
2018-03-19T03:23:50.661Z,-1.70
2018-03-19T03:26:18.257Z,-1.70
2018-03-19T03:28:45.858Z,-1.70
2018-03-19T03:31:13.476Z,-1.70
2018-03-19T03:33:41.062Z,-1.70
2018-03-19T03:36:08.667Z,-1.70
2018-03-19T03:38:36.287Z,-1.70
2018-03-19T03:41:04.145Z,-1.70
2018-03-19T03:43:31.758Z,-1.70
2018-03-19T03:45:59.371Z,-1.70
2018-03-19T03:48:27.031Z,-1.70
2018-03-19T03:50:54.658Z,-1.70
2018-03-19T03:53:22.295Z,-1.70
2018-03-19T03:55:49.904Z,-1.70
2018-03-19T03:58:17.509Z,-1.70
2018-03-19T04:00:45.132Z,-1.70
2018-03-19T04:03:12.740Z,-1.70
2018-03-19T04:05:40.403Z,-1.70
2018-03-19T04:08:07.996Z,-1.80
2018-03-19T04:10:35.629Z,-1.80
2018-03-19T04:13:03.243Z,-1.80
2018-03-19T04:15:31.209Z,-1.80
2018-03-19T04:17:58.845Z,-1.80
2018-03-19T04:20:26.423Z,-1.80
2018-03-19T04:22:54.070Z,-1.80
2018-03-19T04:25:21.647Z,-1.80
2018-03-19T04:27:49.623Z,-1.80
2018-03-19T04:30:17.202Z,-1.80
2018-03-19T04:32:44.828Z,-1.80
2018-03-19T04:35:12.546Z,-1.80
2018-03-19T04:37:40.183Z,-1.80
2018-03-19T04:40:07.771Z,-1.80
2018-03-19T04:42:35.525Z,-1.80
2018-03-19T04:45:03.110Z,-1.90
2018-03-19T04:47:30.899Z,-1.90
2018-03-19T04:49:58.538Z,-1.80
2018-03-19T04:52:26.172Z,-1.90
2018-03-19T04:54:53.771Z,-1.90
2018-03-19T04:57:21.375Z,-1.90
2018-03-19T04:59:48.983Z,-1.90
2018-03-19T05:02:16.630Z,-1.90
2018-03-19T05:04:44.235Z,-1.90
2018-03-19T05:07:12.027Z,-1.90
2018-03-19T05:09:39.624Z,-1.90
2018-03-19T05:12:07.220Z,-1.90
2018-03-19T05:14:34.788Z,-1.90
2018-03-19T05:17:02.379Z,-1.90
2018-03-19T05:19:30.005Z,-1.90
2018-03-19T05:21:57.592Z,-1.90
2018-03-19T05:24:25.208Z,-1.90
2018-03-19T05:27:03.121Z,-1.90
2018-03-19T05:29:30.713Z,-2.00
2018-03-19T05:31:58.358Z,-2.00
2018-03-19T05:34:25.963Z,-2.00
2018-03-19T05:36:53.578Z,-2.00
2018-03-19T05:39:21.219Z,-2.00
2018-03-19T05:41:48.825Z,-1.90
2018-03-19T05:44:16.804Z,-1.90
2018-03-19T05:46:44.427Z,-1.90
2018-03-19T05:49:12.187Z,-1.90
2018-03-19T05:51:39.829Z,-1.90
2018-03-19T05:54:07.489Z,-1.90
2018-03-19T05:56:35.096Z,-1.90
2018-03-19T05:59:02.714Z,-1.90
2018-03-19T06:01:30.267Z,-1.80
2018-03-19T06:03:57.882Z,-1.80
2018-03-19T06:06:25.478Z,-1.80
2018-03-19T06:08:53.102Z,-1.80
2018-03-19T06:11:20.672Z,-1.80
2018-03-19T06:13:48.702Z,-1.70
2018-03-19T06:16:16.314Z,-1.70
2018-03-19T06:18:43.946Z,-1.70
2018-03-19T06:21:11.795Z,-1.70
2018-03-19T06:23:39.416Z,-1.60
2018-03-19T06:26:07.033Z,-1.60
2018-03-19T06:28:34.600Z,-1.60
2018-03-19T06:31:02.276Z,-1.60
2018-03-19T06:33:29.903Z,-1.60
2018-03-19T06:35:57.498Z,-1.50
2018-03-19T06:38:25.112Z,-1.50
2018-03-19T06:40:52.758Z,-1.50
2018-03-19T06:43:20.437Z,-1.40
2018-03-19T06:45:49.120Z,-1.40
2018-03-19T06:48:17.129Z,-1.30
2018-03-19T06:50:44.971Z,-1.30
2018-03-19T06:53:13.724Z,-1.30
2018-03-19T06:55:48.728Z,-1.40
2018-03-19T06:58:16.290Z,-1.30
2018-03-19T07:00:43.917Z,-1.30
2018-03-19T07:03:12.053Z,-1.30
2018-03-19T07:05:39.982Z,-1.30
2018-03-19T07:08:07.529Z,-1.30
2018-03-19T07:10:35.147Z,-1.30
2018-03-19T07:13:02.728Z,-1.20
2018-03-19T07:15:30.405Z,-1.10
2018-03-19T07:17:59.042Z,-1.10
2018-03-19T07:20:26.674Z,-1.00
2018-03-19T07:22:54.340Z,-1.00
2018-03-19T07:25:22.776Z,-0.90
2018-03-19T07:27:50.792Z,-0.90
2018-03-19T07:30:18.755Z,-0.90
2018-03-19T07:32:47.165Z,-0.80
2018-03-19T07:35:14.886Z,-0.80
2018-03-19T07:37:43.071Z,-0.70
2018-03-19T07:40:16.551Z,-0.70
2018-03-19T07:42:44.707Z,-0.70
2018-03-19T07:45:12.338Z,-0.70
2018-03-19T07:47:40.183Z,-0.70
2018-03-19T07:50:08.189Z,-0.70
2018-03-19T07:52:35.873Z,-0.60
2018-03-19T07:55:03.531Z,-0.60
2018-03-19T07:57:31.377Z,-0.50
2018-03-19T07:59:58.977Z,-0.40
2018-03-19T08:02:26.595Z,-0.40
2018-03-19T08:04:54.183Z,-0.40
2018-03-19T08:07:21.783Z,-0.40
2018-03-19T08:09:49.375Z,-0.20
2018-03-19T08:12:17.015Z,0.00
2018-03-19T08:14:50.651Z,0.10
2018-03-19T08:17:18.260Z,0.20
2018-03-19T08:19:45.871Z,0.20
2018-03-19T08:22:14.588Z,0.30
2018-03-19T08:24:42.449Z,0.40
2018-03-19T08:27:10.078Z,0.50
2018-03-19T08:29:37.658Z,0.40
2018-03-19T08:32:05.245Z,0.50
2018-03-19T08:34:32.889Z,0.40
2018-03-19T08:37:00.471Z,0.40
2018-03-19T08:39:29.670Z,0.40
2018-03-19T08:41:57.330Z,0.50
2018-03-19T08:44:24.932Z,0.50
2018-03-19T08:46:52.523Z,0.50
2018-03-19T08:49:20.168Z,0.50
2018-03-19T08:51:47.779Z,0.50
2018-03-19T08:54:15.386Z,0.60
2018-03-19T08:56:42.986Z,0.80
2018-03-19T08:59:10.640Z,0.80
2018-03-19T09:01:38.240Z,0.90
2018-03-19T09:04:05.823Z,0.90
2018-03-19T09:06:33.408Z,1.00
2018-03-19T09:09:01.419Z,1.10
2018-03-19T09:11:28.975Z,1.10
2018-03-19T09:13:56.784Z,1.20
2018-03-19T09:16:24.338Z,1.30
2018-03-19T09:18:51.935Z,1.30
2018-03-19T09:21:19.494Z,1.50
2018-03-19T09:23:47.536Z,1.60
2018-03-19T09:26:15.125Z,1.60
2018-03-19T09:28:42.701Z,1.50
2018-03-19T09:31:10.821Z,1.50
2018-03-19T09:33:38.569Z,1.40
2018-03-19T09:36:06.181Z,1.60
2018-03-19T09:38:33.754Z,1.70
2018-03-19T09:41:01.366Z,1.80
2018-03-19T09:43:29.031Z,2.00
2018-03-19T09:45:56.652Z,2.00
2018-03-19T09:48:24.254Z,2.10
2018-03-19T09:50:51.857Z,2.20
2018-03-19T09:53:19.471Z,2.30
2018-03-19T09:55:47.120Z,2.20
2018-03-19T09:58:14.779Z,2.20
2018-03-19T10:00:42.364Z,2.10
2018-03-19T10:03:09.928Z,2.10
2018-03-19T10:05:37.845Z,2.20
2018-03-19T10:08:05.441Z,2.40
2018-03-19T10:10:33.079Z,2.40
2018-03-19T10:13:00.698Z,2.40
2018-03-19T10:15:28.382Z,2.30
2018-03-19T10:17:55.971Z,2.30
2018-03-19T10:20:23.554Z,2.30
2018-03-19T10:22:51.202Z,2.30
2018-03-19T10:25:19.336Z,2.50
2018-03-19T10:27:47.409Z,2.40
2018-03-19T10:30:15.575Z,2.40
2018-03-19T10:32:44.774Z,2.30
2018-03-19T10:35:13.636Z,2.30
2018-03-19T10:37:41.258Z,2.40
2018-03-19T10:40:08.888Z,2.50
2018-03-19T10:42:36.443Z,2.60
2018-03-19T10:45:04.237Z,2.80
2018-03-19T10:47:43.898Z,2.90
2018-03-19T10:50:11.696Z,3.00
2018-03-19T10:52:39.299Z,3.00
2018-03-19T10:55:06.891Z,3.00
2018-03-19T10:57:34.516Z,3.10
2018-03-19T11:00:02.349Z,3.10
2018-03-19T11:02:32.842Z,3.10
2018-03-19T11:05:05.969Z,3.20
2018-03-19T11:07:39.258Z,3.30
2018-03-19T11:10:06.856Z,3.50
2018-03-19T11:12:34.476Z,3.70
2018-03-19T11:15:03.261Z,3.90
2018-03-19T11:17:30.866Z,4.20
2018-03-19T11:19:58.960Z,4.50
2018-03-19T11:22:26.717Z,4.50
2018-03-19T11:24:54.290Z,4.60
2018-03-19T11:27:21.901Z,4.60
2018-03-19T11:29:49.455Z,4.70
2018-03-19T11:32:17.045Z,4.50
2018-03-19T11:34:44.600Z,4.50
2018-03-19T11:37:13.291Z,4.50
2018-03-19T11:39:40.868Z,4.60
2018-03-19T11:42:08.496Z,4.70
2018-03-19T11:44:36.456Z,5.00
2018-03-19T11:47:04.072Z,5.00
2018-03-19T11:49:31.637Z,4.90
2018-03-19T11:51:59.236Z,4.70
2018-03-19T11:54:27.223Z,4.70
2018-03-19T11:56:54.828Z,4.70
2018-03-19T11:59:22.433Z,4.60
2018-03-19T12:01:50.040Z,4.40
2018-03-19T12:04:17.622Z,4.20
2018-03-19T12:06:45.205Z,4.10
2018-03-19T12:09:13.199Z,3.90
2018-03-19T12:11:40.811Z,3.90
2018-03-19T12:14:08.423Z,3.80
2018-03-19T12:16:35.992Z,3.70
2018-03-19T12:19:04.612Z,3.70
2018-03-19T12:21:32.207Z,3.60
2018-03-19T12:23:59.811Z,3.70
2018-03-19T12:26:27.369Z,3.50
2018-03-19T12:28:54.987Z,3.60
2018-03-19T12:31:22.615Z,3.70
2018-03-19T12:33:50.642Z,3.60
2018-03-19T12:36:18.224Z,3.60
2018-03-19T12:38:45.893Z,3.70
2018-03-19T12:41:13.523Z,3.80
2018-03-19T12:43:41.162Z,3.90
2018-03-19T12:46:08.937Z,4.00
2018-03-19T12:48:36.536Z,3.90
2018-03-19T12:51:04.175Z,3.70
2018-03-19T12:53:31.785Z,3.60
2018-03-19T12:55:59.436Z,3.70
2018-03-19T12:58:27.382Z,3.60
2018-03-19T13:00:54.968Z,3.40
2018-03-19T13:03:23.057Z,3.20
2018-03-19T13:05:50.566Z,3.20
2018-03-19T13:08:18.171Z,3.40
2018-03-19T13:10:45.815Z,3.40
2018-03-19T13:13:13.442Z,3.40
2018-03-19T13:15:41.054Z,3.20
2018-03-19T13:18:08.663Z,3.10
2018-03-19T13:20:36.258Z,3.10
2018-03-19T13:23:03.819Z,3.10
2018-03-19T13:25:31.720Z,2.90
2018-03-19T13:27:59.303Z,2.70
2018-03-19T13:30:26.963Z,2.70
2018-03-19T13:32:54.579Z,2.60
2018-03-19T13:35:22.174Z,2.50
2018-03-19T13:37:49.801Z,2.50
2018-03-19T13:40:17.431Z,2.50
2018-03-19T13:42:45.016Z,2.50
2018-03-19T13:45:12.622Z,2.50
2018-03-19T13:47:40.254Z,2.50
2018-03-19T13:50:08.059Z,2.50
2018-03-19T13:52:36.031Z,2.70
2018-03-19T13:55:03.644Z,2.70
2018-03-19T13:57:31.239Z,2.80
2018-03-19T13:59:58.861Z,2.90
2018-03-19T14:02:26.423Z,2.90
2018-03-19T14:04:53.996Z,2.80
2018-03-19T14:07:21.628Z,2.70
2018-03-19T14:09:49.215Z,2.60
2018-03-19T14:12:16.811Z,2.60
2018-03-19T14:14:44.435Z,2.50
2018-03-19T14:17:12.097Z,2.30
2018-03-19T14:19:39.672Z,2.20
2018-03-19T14:22:07.278Z,2.30
2018-03-19T14:24:34.851Z,2.30
2018-03-19T14:27:02.443Z,2.40
2018-03-19T14:29:30.044Z,2.20
2018-03-19T14:31:57.667Z,2.10
2018-03-19T14:34:25.266Z,2.10
2018-03-19T14:36:52.884Z,2.00
2018-03-19T14:39:20.459Z,2.10
2018-03-19T14:41:48.103Z,2.00
2018-03-19T14:44:15.700Z,2.00
2018-03-19T14:46:43.384Z,2.00
2018-03-19T14:49:10.946Z,1.90
2018-03-19T14:51:38.559Z,1.80
2018-03-19T14:54:06.217Z,1.70
2018-03-19T14:56:35.129Z,1.70
2018-03-19T14:59:02.798Z,1.70
2018-03-19T15:01:31.311Z,1.70
2018-03-19T15:03:58.910Z,1.70
2018-03-19T15:06:26.557Z,1.70
2018-03-19T15:08:54.184Z,1.80
2018-03-19T15:11:22.760Z,1.80
2018-03-19T15:13:50.516Z,1.80
2018-03-19T15:16:38.131Z,1.80
2018-03-19T15:19:05.737Z,1.70
2018-03-19T15:21:33.671Z,1.80
2018-03-19T15:24:01.412Z,1.80
2018-03-19T15:26:28.980Z,1.70
2018-03-19T15:28:56.843Z,1.70
2018-03-19T15:31:24.399Z,1.70
2018-03-19T15:33:52.097Z,1.60
2018-03-19T15:36:20.263Z,1.60
2018-03-19T15:38:49.138Z,1.60
2018-03-19T15:41:16.872Z,1.60
2018-03-19T15:43:44.507Z,1.50
2018-03-19T15:46:12.497Z,1.30
2018-03-19T15:48:40.108Z,1.30
2018-03-19T15:51:07.709Z,1.20
2018-03-19T15:53:35.337Z,1.30
2018-03-19T15:56:03.187Z,1.20
2018-03-19T15:58:31.166Z,1.20
2018-03-19T16:00:58.799Z,1.20
2018-03-19T16:03:26.397Z,1.10
2018-03-19T16:05:53.986Z,1.00
2018-03-19T16:08:21.586Z,1.00
2018-03-19T16:10:49.232Z,1.00
2018-03-19T16:13:16.843Z,1.00
2018-03-19T16:15:44.773Z,0.90
2018-03-19T16:18:12.399Z,0.90
2018-03-19T16:20:40.023Z,0.90
2018-03-19T16:23:07.852Z,0.90
2018-03-19T16:25:35.471Z,0.90
2018-03-19T16:28:03.071Z,0.90
2018-03-19T16:30:30.703Z,0.90
2018-03-19T16:32:58.303Z,0.90
2018-03-19T16:35:26.123Z,0.90
2018-03-19T16:37:53.684Z,0.90
2018-03-19T16:40:21.297Z,0.90
2018-03-19T16:42:48.910Z,0.80
2018-03-19T16:45:20.327Z,0.80
2018-03-19T16:47:47.907Z,0.70
2018-03-19T16:50:15.523Z,0.70
2018-03-19T16:52:43.086Z,0.60
2018-03-19T16:55:10.687Z,0.60
2018-03-19T16:57:38.257Z,0.60
2018-03-19T17:00:05.877Z,0.60
2018-03-19T17:02:33.441Z,0.60
2018-03-19T17:05:01.049Z,0.50
2018-03-19T17:07:28.619Z,0.50
2018-03-19T17:09:57.213Z,0.50
2018-03-19T17:12:24.946Z,0.50
2018-03-19T17:14:53.059Z,0.50
2018-03-19T17:17:21.673Z,0.50
2018-03-19T17:19:49.287Z,0.50
2018-03-19T17:22:16.953Z,0.40
2018-03-19T17:24:44.575Z,0.40
2018-03-19T17:27:13.470Z,0.40
2018-03-19T17:29:41.432Z,0.30
2018-03-19T17:32:09.844Z,0.30
2018-03-19T17:34:39.798Z,0.30
2018-03-19T17:37:07.397Z,0.30
2018-03-19T17:39:35.033Z,0.20
2018-03-19T17:42:11.812Z,0.30
2018-03-19T17:44:45.405Z,0.30
2018-03-19T17:47:13.821Z,0.30
2018-03-19T17:49:41.509Z,0.30
2018-03-19T17:52:09.110Z,0.30
2018-03-19T17:54:36.711Z,0.30
2018-03-19T17:57:04.329Z,0.30
2018-03-19T17:59:31.873Z,0.30
2018-03-19T18:01:59.485Z,0.30
2018-03-19T18:04:27.054Z,0.20
2018-03-19T18:06:55.178Z,0.20
2018-03-19T18:09:23.325Z,0.20
2018-03-19T18:11:51.057Z,0.20
2018-03-19T18:14:18.687Z,0.20
2018-03-19T18:16:46.591Z,0.20
2018-03-19T18:19:14.517Z,0.20
2018-03-19T18:21:42.172Z,0.20
2018-03-19T18:24:09.759Z,0.20
2018-03-19T18:26:37.353Z,0.20
2018-03-19T18:29:04.946Z,0.20
2018-03-19T18:31:32.563Z,0.20
2018-03-19T18:34:00.143Z,0.20
2018-03-19T18:36:27.761Z,0.10
2018-03-19T18:38:55.758Z,0.10
2018-03-19T18:41:23.368Z,0.10
2018-03-19T18:43:51.113Z,0.10
2018-03-19T18:46:18.739Z,0.10
2018-03-19T18:48:46.355Z,0.10
2018-03-19T18:51:13.990Z,0.00
2018-03-19T18:53:41.859Z,0.00
2018-03-19T18:56:09.624Z,0.00
2018-03-19T18:58:37.329Z,0.00
2018-03-19T19:01:05.254Z,0.00
2018-03-19T19:03:33.255Z,0.10
2018-03-19T19:06:01.392Z,0.10
2018-03-19T19:08:29.055Z,0.10
2018-03-19T19:11:00.171Z,0.10
2018-03-19T19:13:40.864Z,0.10
2018-03-19T19:16:08.707Z,0.10
2018-03-19T19:18:36.726Z,0.10
2018-03-19T19:21:04.693Z,0.00
2018-03-19T19:23:32.351Z,0.00
2018-03-19T19:26:00.718Z,0.00
2018-03-19T19:28:28.947Z,0.00
2018-03-19T19:30:56.877Z,0.00
2018-03-19T19:33:24.518Z,0.00
2018-03-19T19:35:52.243Z,0.00
2018-03-19T19:38:20.118Z,0.00
2018-03-19T19:40:48.426Z,-0.10
2018-03-19T19:43:16.465Z,-0.10
2018-03-19T19:45:44.433Z,-0.10
2018-03-19T19:48:12.045Z,-0.10
2018-03-19T19:50:40.161Z,-0.20
2018-03-19T19:53:08.344Z,-0.20
2018-03-19T19:55:36.097Z,-0.20
2018-03-19T19:58:04.820Z,-0.20
2018-03-19T20:00:32.720Z,-0.20
2018-03-19T20:03:02.119Z,-0.20
2018-03-19T20:05:29.741Z,-0.20
2018-03-19T20:07:58.494Z,-0.20
2018-03-19T20:10:26.576Z,-0.20
2018-03-19T20:12:54.651Z,-0.20
2018-03-19T20:15:22.257Z,-0.20
2018-03-19T20:17:50.923Z,-0.20
2018-03-19T20:20:19.768Z,-0.20
2018-03-19T20:22:48.142Z,-0.20
2018-03-19T20:25:19.900Z,-0.20
2018-03-19T20:27:47.607Z,-0.20
2018-03-19T20:30:15.934Z,-0.20
2018-03-19T20:32:44.112Z,-0.20
2018-03-19T20:35:12.294Z,-0.20
2018-03-19T20:37:40.183Z,-0.20
2018-03-19T20:40:09.173Z,-0.30
2018-03-19T20:42:37.930Z,-0.30
2018-03-19T20:45:05.915Z,-0.30
2018-03-19T20:47:34.605Z,-0.30
2018-03-19T20:50:02.191Z,-0.20
2018-03-19T20:52:29.790Z,-0.20
2018-03-19T20:54:57.405Z,-0.20
2018-03-19T20:57:26.179Z,-0.20
2018-03-19T20:59:53.837Z,-0.20
2018-03-19T21:02:21.456Z,-0.20
2018-03-19T21:04:49.086Z,-0.20
2018-03-19T21:07:16.697Z,-0.10
2018-03-19T21:09:44.412Z,-0.10
2018-03-19T21:12:12.075Z,-0.10
2018-03-19T21:14:41.145Z,-0.10
2018-03-19T21:17:08.770Z,-0.10
2018-03-19T21:19:36.450Z,-0.10
2018-03-19T21:22:04.052Z,-0.10
2018-03-19T21:24:31.652Z,-0.10
2018-03-19T21:26:59.215Z,-0.10
2018-03-19T21:29:26.836Z,-0.10
2018-03-19T21:31:54.501Z,-0.10
2018-03-19T21:34:22.121Z,-0.20
2018-03-19T21:36:49.756Z,-0.20
2018-03-19T21:39:17.359Z,-0.20
2018-03-19T21:41:44.987Z,-0.20
2018-03-19T21:44:12.604Z,-0.20
2018-03-19T21:46:40.372Z,-0.20
2018-03-19T21:49:07.951Z,-0.30
2018-03-19T21:51:35.571Z,-0.30
2018-03-19T21:54:03.171Z,-0.30
2018-03-19T21:56:30.800Z,-0.30
2018-03-19T21:58:58.386Z,-0.30
2018-03-19T22:01:26.195Z,-0.30
2018-03-19T22:03:53.798Z,-0.20
2018-03-19T22:06:21.447Z,-0.20
2018-03-19T22:08:49.383Z,-0.30
2018-03-19T22:11:16.980Z,-0.30
2018-03-19T22:13:44.553Z,-0.30
2018-03-19T22:16:12.138Z,-0.30
2018-03-19T22:18:39.739Z,-0.40
2018-03-19T22:21:07.345Z,-0.40
2018-03-19T22:23:34.915Z,-0.40
2018-03-19T22:26:02.524Z,-0.40
2018-03-19T22:28:30.294Z,-0.40
2018-03-19T22:30:57.904Z,-0.40
2018-03-19T22:33:25.486Z,-0.50
2018-03-19T22:35:58.748Z,-0.50
2018-03-19T22:38:26.738Z,-0.60
2018-03-19T22:40:54.364Z,-0.60
2018-03-19T22:43:21.949Z,-0.60
2018-03-19T22:45:49.571Z,-0.70
2018-03-19T22:48:17.209Z,-0.70
2018-03-19T22:50:44.830Z,-0.80
2018-03-19T22:53:12.410Z,-0.80
2018-03-19T22:55:40.097Z,-0.80
2018-03-19T22:58:07.699Z,-0.90
2018-03-19T23:00:35.728Z,-0.90
2018-03-19T23:03:03.319Z,-0.90
2018-03-19T23:05:30.934Z,-1.00
2018-03-19T23:07:58.518Z,-1.00
2018-03-19T23:10:26.177Z,-1.10
2018-03-19T23:12:53.783Z,-1.10
2018-03-19T23:15:21.407Z,-1.20
2018-03-19T23:17:49.037Z,-1.30
2018-03-19T23:20:16.629Z,-1.30
2018-03-19T23:22:44.279Z,-1.30
2018-03-19T23:25:11.915Z,-1.40
2018-03-19T23:27:39.546Z,-1.40
2018-03-19T23:30:07.173Z,-1.50
2018-03-19T23:32:34.780Z,-1.50
2018-03-19T23:35:02.372Z,-1.50
2018-03-19T23:37:29.988Z,-1.60
2018-03-19T23:39:57.582Z,-1.60
2018-03-19T23:42:25.250Z,-1.70
2018-03-19T23:44:52.814Z,-1.70
2018-03-19T23:47:20.430Z,-1.70
2018-03-19T23:49:48.078Z,-1.80
2018-03-19T23:52:16.055Z,-1.90
2018-03-19T23:54:44.244Z,-1.90
2018-03-19T23:57:12.662Z,-2.00
2018-03-19T23:59:41.080Z,-2.00
